sensor_id;sensor_type;location;lat;lon;timestamp;P1;durP1;ratioP1;P2;durP2;ratioP2
56297;SDS011;42208;6.376;-10.782;2023-02-19T00:01:46;173.10;;;49.60;;
56297;SDS011;42208;6.376;-10.782;2023-02-19T00:04:16;158.77;;;49.78;;
56297;SDS011;42208;6.376;-10.782;2023-02-19T00:06:46;167.48;;;50.67;;
56297;SDS011;42208;6.376;-10.782;2023-02-19T00:09:17;172.63;;;47.80;;
56297;SDS011;42208;6.376;-10.782;2023-02-19T00:11:46;144.85;;;42.15;;
56297;SDS011;42208;6.376;-10.782;2023-02-19T00:14:16;130.40;;;39.50;;
56297;SDS011;42208;6.376;-10.782;2023-02-19T00:16:46;140.80;;;39.42;;
56297;SDS011;42208;6.376;-10.782;2023-02-19T00:19:16;151.80;;;42.35;;
56297;SDS011;42208;6.376;-10.782;2023-02-19T00:21:46;204.68;;;64.78;;
56297;SDS011;42208;6.376;-10.782;2023-02-19T00:24:18;199.98;;;71.30;;
56297;SDS011;42208;6.376;-10.782;2023-02-19T00:26:47;270.45;;;89.82;;
56297;SDS011;42208;6.376;-10.782;2023-02-19T00:29:16;263.35;;;86.00;;
56297;SDS011;42208;6.376;-10.782;2023-02-19T00:31:46;204.73;;;66.13;;
56297;SDS011;42208;6.376;-10.782;2023-02-19T00:34:15;186.65;;;59.58;;
56297;SDS011;42208;6.376;-10.782;2023-02-19T00:36:43;151.32;;;48.67;;
56297;SDS011;42208;6.376;-10.782;2023-02-19T00:39:13;152.15;;;44.63;;
56297;SDS011;42208;6.376;-10.782;2023-02-19T00:41:42;145.00;;;41.40;;
56297;SDS011;42208;6.376;-10.782;2023-02-19T00:44:11;123.75;;;39.10;;
56297;SDS011;42208;6.376;-10.782;2023-02-19T00:46:42;133.63;;;40.22;;
56297;SDS011;42208;6.376;-10.782;2023-02-19T00:49:16;138.07;;;40.65;;
56297;SDS011;42208;6.376;-10.782;2023-02-19T00:51:46;138.52;;;41.33;;
56297;SDS011;42208;6.376;-10.782;2023-02-19T00:54:15;143.10;;;41.33;;
56297;SDS011;42208;6.376;-10.782;2023-02-19T00:56:44;165.25;;;42.78;;
56297;SDS011;42208;6.376;-10.782;2023-02-19T00:59:13;143.85;;;47.70;;
56297;SDS011;42208;6.376;-10.782;2023-02-19T01:01:42;172.38;;;54.65;;
56297;SDS011;42208;6.376;-10.782;2023-02-19T01:04:11;193.85;;;59.20;;
56297;SDS011;42208;6.376;-10.782;2023-02-19T01:06:39;196.80;;;62.25;;
56297;SDS011;42208;6.376;-10.782;2023-02-19T01:09:08;202.77;;;60.67;;
56297;SDS011;42208;6.376;-10.782;2023-02-19T01:11:36;170.30;;;56.17;;
56297;SDS011;42208;6.376;-10.782;2023-02-19T01:14:05;167.68;;;52.05;;
56297;SDS011;42208;6.376;-10.782;2023-02-19T01:16:33;158.55;;;48.92;;
56297;SDS011;42208;6.376;-10.782;2023-02-19T01:19:02;148.55;;;46.65;;
56297;SDS011;42208;6.376;-10.782;2023-02-19T01:21:30;135.73;;;39.70;;
56297;SDS011;42208;6.376;-10.782;2023-02-19T01:23:58;144.40;;;42.53;;
56297;SDS011;42208;6.376;-10.782;2023-02-19T01:26:28;119.38;;;31.30;;
56297;SDS011;42208;6.376;-10.782;2023-02-19T01:28:58;128.02;;;32.92;;
56297;SDS011;42208;6.376;-10.782;2023-02-19T01:31:27;120.22;;;33.20;;
56297;SDS011;42208;6.376;-10.782;2023-02-19T01:33:57;137.27;;;37.33;;
56297;SDS011;42208;6.376;-10.782;2023-02-19T01:36:28;139.48;;;37.45;;
56297;SDS011;42208;6.376;-10.782;2023-02-19T01:38:59;121.82;;;36.65;;
56297;SDS011;42208;6.376;-10.782;2023-02-19T01:41:28;139.35;;;37.70;;
56297;SDS011;42208;6.376;-10.782;2023-02-19T01:46:41;125.25;;;36.30;;
56297;SDS011;42208;6.376;-10.782;2023-02-19T01:49:19;163.50;;;50.78;;
56297;SDS011;42208;6.376;-10.782;2023-02-19T01:51:59;214.65;;;71.18;;
56297;SDS011;42208;6.376;-10.782;2023-02-19T01:54:33;213.05;;;66.38;;
56297;SDS011;42208;6.376;-10.782;2023-02-19T01:59:34;208.70;;;74.22;;
56297;SDS011;42208;6.376;-10.782;2023-02-19T02:02:03;222.23;;;78.72;;
56297;SDS011;42208;6.376;-10.782;2023-02-19T02:04:32;210.45;;;75.95;;
56297;SDS011;42208;6.376;-10.782;2023-02-19T02:07:01;202.27;;;75.57;;
56297;SDS011;42208;6.376;-10.782;2023-02-19T02:09:31;226.40;;;77.43;;
56297;SDS011;42208;6.376;-10.782;2023-02-19T02:12:00;194.52;;;74.18;;
56297;SDS011;42208;6.376;-10.782;2023-02-19T02:14:29;190.13;;;73.15;;
56297;SDS011;42208;6.376;-10.782;2023-02-19T02:17:19;239.60;;;80.07;;
56297;SDS011;42208;6.376;-10.782;2023-02-19T02:31:26;190.48;;;70.13;;
56297;SDS011;42208;6.376;-10.782;2023-02-19T02:34:11;184.18;;;67.53;;
56297;SDS011;42208;6.376;-10.782;2023-02-19T02:36:45;179.98;;;62.83;;
56297;SDS011;42208;6.376;-10.782;2023-02-19T02:39:18;178.15;;;65.25;;
56297;SDS011;42208;6.376;-10.782;2023-02-19T02:41:50;188.88;;;66.25;;
56297;SDS011;42208;6.376;-10.782;2023-02-19T02:44:32;177.15;;;60.10;;
56297;SDS011;42208;6.376;-10.782;2023-02-19T02:47:03;172.52;;;60.50;;
56297;SDS011;42208;6.376;-10.782;2023-02-19T02:49:33;173.57;;;58.40;;
56297;SDS011;42208;6.376;-10.782;2023-02-19T02:52:02;175.50;;;59.65;;
56297;SDS011;42208;6.376;-10.782;2023-02-19T02:54:31;171.65;;;60.85;;
56297;SDS011;42208;6.376;-10.782;2023-02-19T02:57:06;172.35;;;61.67;;
56297;SDS011;42208;6.376;-10.782;2023-02-19T02:59:42;186.88;;;75.55;;
56297;SDS011;42208;6.376;-10.782;2023-02-19T03:02:16;257.77;;;99.57;;
56297;SDS011;42208;6.376;-10.782;2023-02-19T03:07:17;222.45;;;86.10;;
56297;SDS011;42208;6.376;-10.782;2023-02-19T03:09:45;228.52;;;81.57;;
56297;SDS011;42208;6.376;-10.782;2023-02-19T03:12:15;230.15;;;84.65;;
56297;SDS011;42208;6.376;-10.782;2023-02-19T03:14:47;226.55;;;90.55;;
56297;SDS011;42208;6.376;-10.782;2023-02-19T03:19:59;236.63;;;100.15;;
56297;SDS011;42208;6.376;-10.782;2023-02-19T03:22:33;240.95;;;92.60;;
56297;SDS011;42208;6.376;-10.782;2023-02-19T03:25:09;226.90;;;87.47;;
56297;SDS011;42208;6.376;-10.782;2023-02-19T03:27:50;230.30;;;85.00;;
56297;SDS011;42208;6.376;-10.782;2023-02-19T03:30:22;226.82;;;86.13;;
56297;SDS011;42208;6.376;-10.782;2023-02-19T03:32:56;248.38;;;91.25;;
56297;SDS011;42208;6.376;-10.782;2023-02-19T03:35:30;231.07;;;88.85;;
56297;SDS011;42208;6.376;-10.782;2023-02-19T03:40:30;255.80;;;89.03;;
56297;SDS011;42208;6.376;-10.782;2023-02-19T03:48:58;170.50;;;61.95;;
56297;SDS011;42208;6.376;-10.782;2023-02-19T03:51:50;162.18;;;52.70;;
56297;SDS011;42208;6.376;-10.782;2023-02-19T03:54:54;155.98;;;52.08;;
56297;SDS011;42208;6.376;-10.782;2023-02-19T03:57:30;164.02;;;58.60;;
56297;SDS011;42208;6.376;-10.782;2023-02-19T04:00:24;169.65;;;64.30;;
56297;SDS011;42208;6.376;-10.782;2023-02-19T04:05:58;159.63;;;51.05;;
56297;SDS011;42208;6.376;-10.782;2023-02-19T04:08:30;147.50;;;45.42;;
56297;SDS011;42208;6.376;-10.782;2023-02-19T04:11:04;138.45;;;41.15;;
56297;SDS011;42208;6.376;-10.782;2023-02-19T04:13:36;138.38;;;43.03;;
56297;SDS011;42208;6.376;-10.782;2023-02-19T04:16:12;124.97;;;38.97;;
56297;SDS011;42208;6.376;-10.782;2023-02-19T04:18:55;130.40;;;35.03;;
56297;SDS011;42208;6.376;-10.782;2023-02-19T04:21:30;109.47;;;33.47;;
56297;SDS011;42208;6.376;-10.782;2023-02-19T04:24:01;107.88;;;32.80;;
56297;SDS011;42208;6.376;-10.782;2023-02-19T04:26:33;131.27;;;39.20;;
56297;SDS011;42208;6.376;-10.782;2023-02-19T04:29:02;143.77;;;44.90;;
56297;SDS011;42208;6.376;-10.782;2023-02-19T04:31:30;129.93;;;46.08;;
56297;SDS011;42208;6.376;-10.782;2023-02-19T04:34:02;177.43;;;60.40;;
56297;SDS011;42208;6.376;-10.782;2023-02-19T04:36:31;187.57;;;65.57;;
56297;SDS011;42208;6.376;-10.782;2023-02-19T04:38:59;166.15;;;63.78;;
56297;SDS011;42208;6.376;-10.782;2023-02-19T04:41:28;185.00;;;65.50;;
56297;SDS011;42208;6.376;-10.782;2023-02-19T04:43:56;157.25;;;55.13;;
56297;SDS011;42208;6.376;-10.782;2023-02-19T04:46:24;141.75;;;47.47;;
56297;SDS011;42208;6.376;-10.782;2023-02-19T04:48:53;140.07;;;43.33;;
56297;SDS011;42208;6.376;-10.782;2023-02-19T04:51:22;122.00;;;42.97;;
56297;SDS011;42208;6.376;-10.782;2023-02-19T04:53:50;135.77;;;43.25;;
56297;SDS011;42208;6.376;-10.782;2023-02-19T04:56:19;152.18;;;49.47;;
56297;SDS011;42208;6.376;-10.782;2023-02-19T04:58:47;154.50;;;50.70;;
56297;SDS011;42208;6.376;-10.782;2023-02-19T05:01:15;142.73;;;46.78;;
56297;SDS011;42208;6.376;-10.782;2023-02-19T05:03:44;125.85;;;40.80;;
56297;SDS011;42208;6.376;-10.782;2023-02-19T05:06:13;114.35;;;33.83;;
56297;SDS011;42208;6.376;-10.782;2023-02-19T05:08:41;108.97;;;31.65;;
56297;SDS011;42208;6.376;-10.782;2023-02-19T05:11:10;126.00;;;30.00;;
56297;SDS011;42208;6.376;-10.782;2023-02-19T05:13:39;104.80;;;27.13;;
56297;SDS011;42208;6.376;-10.782;2023-02-19T05:16:12;110.88;;;27.73;;
56297;SDS011;42208;6.376;-10.782;2023-02-19T05:18:42;96.93;;;23.75;;
56297;SDS011;42208;6.376;-10.782;2023-02-19T05:21:12;98.90;;;23.77;;
56297;SDS011;42208;6.376;-10.782;2023-02-19T05:23:40;87.22;;;21.08;;
56297;SDS011;42208;6.376;-10.782;2023-02-19T05:26:13;89.65;;;22.77;;
56297;SDS011;42208;6.376;-10.782;2023-02-19T05:28:44;93.88;;;22.42;;
56297;SDS011;42208;6.376;-10.782;2023-02-19T05:31:13;81.38;;;20.00;;
56297;SDS011;42208;6.376;-10.782;2023-02-19T05:33:42;78.03;;;21.60;;
56297;SDS011;42208;6.376;-10.782;2023-02-19T05:36:11;72.43;;;21.70;;
56297;SDS011;42208;6.376;-10.782;2023-02-19T05:38:40;72.13;;;21.20;;
56297;SDS011;42208;6.376;-10.782;2023-02-19T05:41:16;74.70;;;21.20;;
56297;SDS011;42208;6.376;-10.782;2023-02-19T05:43:47;96.03;;;23.27;;
56297;SDS011;42208;6.376;-10.782;2023-02-19T05:46:17;86.40;;;22.23;;
56297;SDS011;42208;6.376;-10.782;2023-02-19T05:48:47;79.50;;;22.77;;
56297;SDS011;42208;6.376;-10.782;2023-02-19T05:51:18;103.22;;;23.27;;
56297;SDS011;42208;6.376;-10.782;2023-02-19T05:53:48;85.53;;;23.67;;
56297;SDS011;42208;6.376;-10.782;2023-02-19T05:56:27;80.93;;;21.67;;
56297;SDS011;42208;6.376;-10.782;2023-02-19T05:58:57;83.80;;;22.30;;
56297;SDS011;42208;6.376;-10.782;2023-02-19T06:01:27;89.47;;;22.25;;
56297;SDS011;42208;6.376;-10.782;2023-02-19T06:03:56;94.22;;;24.23;;
56297;SDS011;42208;6.376;-10.782;2023-02-19T06:06:24;78.30;;;22.80;;
56297;SDS011;42208;6.376;-10.782;2023-02-19T06:08:53;94.85;;;26.13;;
56297;SDS011;42208;6.376;-10.782;2023-02-19T06:11:22;93.93;;;25.10;;
56297;SDS011;42208;6.376;-10.782;2023-02-19T06:13:51;97.60;;;25.80;;
56297;SDS011;42208;6.376;-10.782;2023-02-19T06:16:19;85.60;;;24.42;;
56297;SDS011;42208;6.376;-10.782;2023-02-19T06:18:49;87.38;;;23.73;;
56297;SDS011;42208;6.376;-10.782;2023-02-19T06:21:18;87.50;;;27.63;;
56297;SDS011;42208;6.376;-10.782;2023-02-19T06:23:47;85.15;;;25.20;;
56297;SDS011;42208;6.376;-10.782;2023-02-19T06:26:17;98.25;;;24.85;;
56297;SDS011;42208;6.376;-10.782;2023-02-19T06:28:47;101.27;;;24.63;;
56297;SDS011;42208;6.376;-10.782;2023-02-19T06:31:18;84.03;;;24.60;;
56297;SDS011;42208;6.376;-10.782;2023-02-19T06:33:47;77.82;;;21.80;;
56297;SDS011;42208;6.376;-10.782;2023-02-19T06:36:16;106.90;;;25.73;;
56297;SDS011;42208;6.376;-10.782;2023-02-19T06:38:45;91.38;;;23.45;;
56297;SDS011;42208;6.376;-10.782;2023-02-19T06:41:14;74.80;;;21.10;;
56297;SDS011;42208;6.376;-10.782;2023-02-19T06:43:43;81.97;;;22.52;;
56297;SDS011;42208;6.376;-10.782;2023-02-19T06:46:11;82.50;;;22.67;;
56297;SDS011;42208;6.376;-10.782;2023-02-19T06:48:40;82.72;;;23.63;;
56297;SDS011;42208;6.376;-10.782;2023-02-19T06:51:10;90.95;;;21.92;;
56297;SDS011;42208;6.376;-10.782;2023-02-19T06:53:40;74.13;;;22.10;;
56297;SDS011;42208;6.376;-10.782;2023-02-19T07:01:24;86.47;;;23.90;;
56297;SDS011;42208;6.376;-10.782;2023-02-19T07:03:56;75.82;;;23.92;;
56297;SDS011;42208;6.376;-10.782;2023-02-19T07:06:25;94.82;;;24.63;;
56297;SDS011;42208;6.376;-10.782;2023-02-19T07:08:55;79.45;;;23.83;;
56297;SDS011;42208;6.376;-10.782;2023-02-19T07:11:24;82.22;;;22.98;;
56297;SDS011;42208;6.376;-10.782;2023-02-19T07:13:56;78.82;;;22.83;;
56297;SDS011;42208;6.376;-10.782;2023-02-19T07:16:26;79.03;;;21.48;;
56297;SDS011;42208;6.376;-10.782;2023-02-19T07:18:55;80.60;;;20.83;;
56297;SDS011;42208;6.376;-10.782;2023-02-19T07:21:24;69.47;;;22.90;;
56297;SDS011;42208;6.376;-10.782;2023-02-19T07:23:54;110.20;;;24.77;;
56297;SDS011;42208;6.376;-10.782;2023-02-19T07:26:22;84.38;;;23.70;;
56297;SDS011;42208;6.376;-10.782;2023-02-19T07:28:51;102.45;;;23.40;;
56297;SDS011;42208;6.376;-10.782;2023-02-19T07:31:20;87.10;;;23.52;;
56297;SDS011;42208;6.376;-10.782;2023-02-19T07:33:50;83.20;;;22.08;;
56297;SDS011;42208;6.376;-10.782;2023-02-19T07:36:18;102.43;;;24.45;;
56297;SDS011;42208;6.376;-10.782;2023-02-19T07:38:57;107.95;;;23.65;;
56297;SDS011;42208;6.376;-10.782;2023-02-19T07:41:26;81.18;;;21.48;;
56297;SDS011;42208;6.376;-10.782;2023-02-19T07:43:56;89.13;;;24.67;;
56297;SDS011;42208;6.376;-10.782;2023-02-19T07:46:25;92.68;;;25.10;;
56297;SDS011;42208;6.376;-10.782;2023-02-19T07:48:53;104.07;;;23.88;;
56297;SDS011;42208;6.376;-10.782;2023-02-19T07:51:22;93.75;;;24.52;;
56297;SDS011;42208;6.376;-10.782;2023-02-19T07:53:50;89.60;;;24.67;;
56297;SDS011;42208;6.376;-10.782;2023-02-19T07:56:19;101.45;;;26.40;;
56297;SDS011;42208;6.376;-10.782;2023-02-19T07:58:47;108.85;;;27.35;;
56297;SDS011;42208;6.376;-10.782;2023-02-19T08:01:16;89.50;;;26.15;;
56297;SDS011;42208;6.376;-10.782;2023-02-19T08:03:49;101.35;;;26.58;;
56297;SDS011;42208;6.376;-10.782;2023-02-19T08:06:17;89.45;;;23.67;;
56297;SDS011;42208;6.376;-10.782;2023-02-19T08:08:46;99.47;;;25.80;;
56297;SDS011;42208;6.376;-10.782;2023-02-19T08:11:14;109.97;;;25.15;;
56297;SDS011;42208;6.376;-10.782;2023-02-19T08:13:42;81.40;;;23.63;;
56297;SDS011;42208;6.376;-10.782;2023-02-19T08:16:12;95.05;;;24.58;;
56297;SDS011;42208;6.376;-10.782;2023-02-19T08:18:52;95.70;;;24.13;;
56297;SDS011;42208;6.376;-10.782;2023-02-19T08:21:20;87.55;;;23.55;;
56297;SDS011;42208;6.376;-10.782;2023-02-19T08:23:49;86.95;;;24.75;;
56297;SDS011;42208;6.376;-10.782;2023-02-19T08:26:18;100.03;;;26.17;;
56297;SDS011;42208;6.376;-10.782;2023-02-19T08:28:47;98.68;;;26.88;;
56297;SDS011;42208;6.376;-10.782;2023-02-19T08:31:18;97.15;;;27.98;;
56297;SDS011;42208;6.376;-10.782;2023-02-19T08:33:50;109.18;;;29.00;;
56297;SDS011;42208;6.376;-10.782;2023-02-19T08:36:19;112.85;;;29.58;;
56297;SDS011;42208;6.376;-10.782;2023-02-19T08:38:47;128.60;;;31.70;;
56297;SDS011;42208;6.376;-10.782;2023-02-19T08:41:19;123.38;;;29.67;;
56297;SDS011;42208;6.376;-10.782;2023-02-19T08:43:48;144.95;;;32.25;;
56297;SDS011;42208;6.376;-10.782;2023-02-19T08:46:16;112.25;;;30.02;;
56297;SDS011;42208;6.376;-10.782;2023-02-19T08:48:45;121.38;;;32.60;;
56297;SDS011;42208;6.376;-10.782;2023-02-19T08:51:13;119.90;;;29.90;;
56297;SDS011;42208;6.376;-10.782;2023-02-19T08:53:42;129.60;;;31.25;;
56297;SDS011;42208;6.376;-10.782;2023-02-19T08:56:11;126.60;;;33.47;;
56297;SDS011;42208;6.376;-10.782;2023-02-19T08:58:41;146.52;;;30.95;;
56297;SDS011;42208;6.376;-10.782;2023-02-19T09:01:11;128.77;;;29.17;;
56297;SDS011;42208;6.376;-10.782;2023-02-19T09:03:41;142.70;;;32.95;;
56297;SDS011;42208;6.376;-10.782;2023-02-19T09:06:12;156.02;;;31.70;;
56297;SDS011;42208;6.376;-10.782;2023-02-19T09:08:42;148.02;;;30.00;;
56297;SDS011;42208;6.376;-10.782;2023-02-19T09:11:11;138.60;;;30.77;;
56297;SDS011;42208;6.376;-10.782;2023-02-19T09:13:40;135.57;;;30.08;;
56297;SDS011;42208;6.376;-10.782;2023-02-19T09:16:09;134.38;;;30.25;;
56297;SDS011;42208;6.376;-10.782;2023-02-19T09:18:37;147.98;;;30.85;;
56297;SDS011;42208;6.376;-10.782;2023-02-19T09:21:05;137.95;;;30.75;;
56297;SDS011;42208;6.376;-10.782;2023-02-19T09:23:34;123.38;;;29.10;;
56297;SDS011;42208;6.376;-10.782;2023-02-19T09:26:04;148.40;;;30.73;;
56297;SDS011;42208;6.376;-10.782;2023-02-19T09:28:33;142.07;;;32.50;;
56297;SDS011;42208;6.376;-10.782;2023-02-19T09:31:02;131.05;;;27.58;;
56297;SDS011;42208;6.376;-10.782;2023-02-19T09:33:31;138.65;;;30.52;;
56297;SDS011;42208;6.376;-10.782;2023-02-19T09:36:00;135.05;;;25.95;;
56297;SDS011;42208;6.376;-10.782;2023-02-19T09:38:29;115.32;;;28.80;;
56297;SDS011;42208;6.376;-10.782;2023-02-19T09:40:58;118.55;;;26.67;;
56297;SDS011;42208;6.376;-10.782;2023-02-19T09:43:32;108.05;;;25.35;;
56297;SDS011;42208;6.376;-10.782;2023-02-19T09:48:54;111.97;;;25.35;;
56297;SDS011;42208;6.376;-10.782;2023-02-19T09:51:30;125.65;;;27.33;;
56297;SDS011;42208;6.376;-10.782;2023-02-19T09:54:01;115.80;;;24.45;;
56297;SDS011;42208;6.376;-10.782;2023-02-19T09:56:32;119.93;;;25.90;;
56297;SDS011;42208;6.376;-10.782;2023-02-19T09:59:01;123.30;;;27.35;;
56297;SDS011;42208;6.376;-10.782;2023-02-19T10:01:31;115.55;;;27.25;;
56297;SDS011;42208;6.376;-10.782;2023-02-19T10:04:03;115.20;;;24.63;;
56297;SDS011;42208;6.376;-10.782;2023-02-19T10:06:31;122.88;;;23.38;;
56297;SDS011;42208;6.376;-10.782;2023-02-19T10:09:15;109.50;;;22.63;;
56297;SDS011;42208;6.376;-10.782;2023-02-19T10:11:53;120.93;;;25.65;;
56297;SDS011;42208;6.376;-10.782;2023-02-19T10:14:27;107.47;;;23.23;;
56297;SDS011;42208;6.376;-10.782;2023-02-19T10:17:06;124.82;;;23.08;;
56297;SDS011;42208;6.376;-10.782;2023-02-19T10:19:47;99.33;;;23.50;;
56297;SDS011;42208;6.376;-10.782;2023-02-19T10:22:16;97.32;;;23.30;;
56297;SDS011;42208;6.376;-10.782;2023-02-19T10:27:19;107.47;;;22.45;;
56297;SDS011;42208;6.376;-10.782;2023-02-19T10:29:47;97.50;;;22.27;;
56297;SDS011;42208;6.376;-10.782;2023-02-19T10:32:22;103.07;;;21.95;;
56297;SDS011;42208;6.376;-10.782;2023-02-19T10:35:09;109.23;;;21.73;;
56297;SDS011;42208;6.376;-10.782;2023-02-19T10:37:43;103.28;;;21.20;;
56297;SDS011;42208;6.376;-10.782;2023-02-19T10:40:20;110.63;;;22.00;;
56297;SDS011;42208;6.376;-10.782;2023-02-19T10:42:52;108.10;;;21.75;;
56297;SDS011;42208;6.376;-10.782;2023-02-19T10:47:55;126.80;;;23.25;;
56297;SDS011;42208;6.376;-10.782;2023-02-19T10:50:30;102.10;;;22.48;;
56297;SDS011;42208;6.376;-10.782;2023-02-19T10:53:01;92.72;;;23.25;;
56297;SDS011;42208;6.376;-10.782;2023-02-19T10:55:33;119.88;;;23.80;;
56297;SDS011;42208;6.376;-10.782;2023-02-19T10:58:25;100.80;;;19.17;;
56297;SDS011;42208;6.376;-10.782;2023-02-19T11:01:13;88.22;;;18.40;;
56297;SDS011;42208;6.376;-10.782;2023-02-19T11:03:44;100.63;;;18.77;;
56297;SDS011;42208;6.376;-10.782;2023-02-19T11:06:14;95.60;;;18.77;;
56297;SDS011;42208;6.376;-10.782;2023-02-19T11:08:46;104.28;;;19.48;;
56297;SDS011;42208;6.376;-10.782;2023-02-19T11:11:30;82.18;;;18.73;;
56297;SDS011;42208;6.376;-10.782;2023-02-19T11:14:04;94.13;;;18.88;;
56297;SDS011;42208;6.376;-10.782;2023-02-19T11:16:45;95.72;;;18.45;;
56297;SDS011;42208;6.376;-10.782;2023-02-19T11:19:50;88.00;;;21.42;;
56297;SDS011;42208;6.376;-10.782;2023-02-19T11:22:18;81.97;;;17.75;;
56297;SDS011;42208;6.376;-10.782;2023-02-19T11:24:50;84.13;;;17.92;;
56297;SDS011;42208;6.376;-10.782;2023-02-19T11:27:24;121.68;;;20.70;;
56297;SDS011;42208;6.376;-10.782;2023-02-19T11:29:52;93.50;;;18.15;;
56297;SDS011;42208;6.376;-10.782;2023-02-19T11:32:28;92.65;;;19.50;;
56297;SDS011;42208;6.376;-10.782;2023-02-19T11:35:16;87.53;;;18.40;;
56297;SDS011;42208;6.376;-10.782;2023-02-19T11:40:34;97.43;;;19.55;;
56297;SDS011;42208;6.376;-10.782;2023-02-19T11:51:25;103.30;;;22.23;;
56297;SDS011;42208;6.376;-10.782;2023-02-19T11:54:39;82.65;;;18.00;;
56297;SDS011;42208;6.376;-10.782;2023-02-19T11:57:31;105.05;;;22.20;;
56297;SDS011;42208;6.376;-10.782;2023-02-19T12:05:39;91.88;;;18.77;;
56297;SDS011;42208;6.376;-10.782;2023-02-19T12:11:27;78.80;;;19.95;;
56297;SDS011;42208;6.376;-10.782;2023-02-19T12:14:11;94.82;;;19.90;;
56297;SDS011;42208;6.376;-10.782;2023-02-19T12:16:58;75.90;;;16.95;;
56297;SDS011;42208;6.376;-10.782;2023-02-19T12:22:31;102.38;;;19.77;;
56297;SDS011;42208;6.376;-10.782;2023-02-19T12:30:24;99.00;;;21.75;;
56297;SDS011;42208;6.376;-10.782;2023-02-19T12:39:26;89.07;;;20.45;;
56297;SDS011;42208;6.376;-10.782;2023-02-19T12:45:03;118.55;;;25.42;;
56297;SDS011;42208;6.376;-10.782;2023-02-19T12:47:53;102.25;;;22.15;;
56297;SDS011;42208;6.376;-10.782;2023-02-19T12:50:54;113.25;;;21.20;;
56297;SDS011;42208;6.376;-10.782;2023-02-19T12:56:02;96.47;;;22.35;;
56297;SDS011;42208;6.376;-10.782;2023-02-19T12:58:47;117.65;;;27.30;;
56297;SDS011;42208;6.376;-10.782;2023-02-19T13:01:42;79.95;;;20.08;;
56297;SDS011;42208;6.376;-10.782;2023-02-19T13:04:29;99.28;;;24.10;;
56297;SDS011;42208;6.376;-10.782;2023-02-19T13:07:27;100.80;;;24.60;;
56297;SDS011;42208;6.376;-10.782;2023-02-19T13:12:57;108.00;;;24.05;;
56297;SDS011;42208;6.376;-10.782;2023-02-19T13:15:34;135.98;;;29.95;;
56297;SDS011;42208;6.376;-10.782;2023-02-19T13:18:19;104.45;;;25.42;;
56297;SDS011;42208;6.376;-10.782;2023-02-19T13:20:55;93.57;;;24.00;;
56297;SDS011;42208;6.376;-10.782;2023-02-19T13:23:25;131.63;;;30.30;;
56297;SDS011;42208;6.376;-10.782;2023-02-19T13:31:35;103.55;;;22.00;;
56297;SDS011;42208;6.376;-10.782;2023-02-19T13:34:27;93.20;;;19.30;;
56297;SDS011;42208;6.376;-10.782;2023-02-19T13:37:06;106.57;;;21.35;;
56297;SDS011;42208;6.376;-10.782;2023-02-19T13:39:35;96.47;;;20.77;;
56297;SDS011;42208;6.376;-10.782;2023-02-19T13:42:17;119.53;;;23.40;;
56297;SDS011;42208;6.376;-10.782;2023-02-19T13:44:54;113.70;;;21.23;;
56297;SDS011;42208;6.376;-10.782;2023-02-19T13:48:12;120.47;;;26.08;;
56297;SDS011;42208;6.376;-10.782;2023-02-19T13:50:23;93.93;;;20.10;;
56297;SDS011;42208;6.376;-10.782;2023-02-19T13:52:55;105.90;;;22.38;;
56297;SDS011;42208;6.376;-10.782;2023-02-19T14:01:14;115.38;;;24.08;;
56297;SDS011;42208;6.376;-10.782;2023-02-19T14:06:15;114.05;;;20.17;;
56297;SDS011;42208;6.376;-10.782;2023-02-19T14:08:57;133.50;;;24.98;;
56297;SDS011;42208;6.376;-10.782;2023-02-19T14:14:25;87.65;;;18.50;;
56297;SDS011;42208;6.376;-10.782;2023-02-19T14:25:25;92.13;;;19.02;;
56297;SDS011;42208;6.376;-10.782;2023-02-19T14:27:58;90.88;;;21.00;;
56297;SDS011;42208;6.376;-10.782;2023-02-19T14:30:59;87.78;;;17.65;;
56297;SDS011;42208;6.376;-10.782;2023-02-19T14:33:46;80.20;;;16.00;;
56297;SDS011;42208;6.376;-10.782;2023-02-19T14:36:48;73.90;;;18.23;;
56297;SDS011;42208;6.376;-10.782;2023-02-19T14:39:30;107.30;;;22.70;;
56297;SDS011;42208;6.376;-10.782;2023-02-19T14:42:01;99.53;;;23.95;;
56297;SDS011;42208;6.376;-10.782;2023-02-19T14:44:54;98.43;;;19.50;;
56297;SDS011;42208;6.376;-10.782;2023-02-19T14:49:57;93.53;;;21.20;;
56297;SDS011;42208;6.376;-10.782;2023-02-19T14:57:52;104.13;;;24.90;;
56297;SDS011;42208;6.376;-10.782;2023-02-19T15:00:26;80.73;;;21.57;;
56297;SDS011;42208;6.376;-10.782;2023-02-19T15:02:57;103.93;;;21.38;;
56297;SDS011;42208;6.376;-10.782;2023-02-19T15:05:26;89.35;;;21.50;;
56297;SDS011;42208;6.376;-10.782;2023-02-19T15:07:59;81.18;;;16.15;;
56297;SDS011;42208;6.376;-10.782;2023-02-19T15:10:33;105.50;;;21.58;;
56297;SDS011;42208;6.376;-10.782;2023-02-19T15:13:03;103.93;;;28.52;;
56297;SDS011;42208;6.376;-10.782;2023-02-19T15:15:37;92.20;;;20.77;;
56297;SDS011;42208;6.376;-10.782;2023-02-19T15:18:19;100.60;;;22.73;;
56297;SDS011;42208;6.376;-10.782;2023-02-19T15:20:49;96.53;;;25.13;;
56297;SDS011;42208;6.376;-10.782;2023-02-19T15:23:24;132.68;;;31.77;;
56297;SDS011;42208;6.376;-10.782;2023-02-19T15:25:55;102.72;;;29.30;;
56297;SDS011;42208;6.376;-10.782;2023-02-19T15:33:26;91.95;;;19.50;;
56297;SDS011;42208;6.376;-10.782;2023-02-19T15:35:58;104.32;;;29.88;;
56297;SDS011;42208;6.376;-10.782;2023-02-19T15:38:31;111.28;;;28.58;;
56297;SDS011;42208;6.376;-10.782;2023-02-19T15:40:59;118.65;;;30.35;;
56297;SDS011;42208;6.376;-10.782;2023-02-19T15:46:19;124.40;;;30.80;;
56297;SDS011;42208;6.376;-10.782;2023-02-19T15:51:30;108.05;;;26.20;;
56297;SDS011;42208;6.376;-10.782;2023-02-19T15:54:11;114.30;;;30.23;;
56297;SDS011;42208;6.376;-10.782;2023-02-19T15:56:54;114.35;;;28.92;;
56297;SDS011;42208;6.376;-10.782;2023-02-19T16:00:02;96.82;;;23.98;;
56297;SDS011;42208;6.376;-10.782;2023-02-19T16:02:25;101.72;;;24.20;;
56297;SDS011;42208;6.376;-10.782;2023-02-19T16:04:53;125.28;;;29.90;;
56297;SDS011;42208;6.376;-10.782;2023-02-19T16:07:23;114.55;;;29.67;;
56297;SDS011;42208;6.376;-10.782;2023-02-19T16:12:54;112.63;;;26.58;;
56297;SDS011;42208;6.376;-10.782;2023-02-19T16:15:23;104.82;;;28.60;;
56297;SDS011;42208;6.376;-10.782;2023-02-19T16:17:53;89.07;;;22.38;;
56297;SDS011;42208;6.376;-10.782;2023-02-19T16:20:26;110.80;;;30.02;;
56297;SDS011;42208;6.376;-10.782;2023-02-19T16:23:01;89.82;;;16.73;;
56297;SDS011;42208;6.376;-10.782;2023-02-19T16:31:09;106.85;;;29.52;;
56297;SDS011;42208;6.376;-10.782;2023-02-19T16:33:43;135.27;;;32.53;;
56297;SDS011;42208;6.376;-10.782;2023-02-19T16:46:48;142.38;;;44.65;;
56297;SDS011;42208;6.376;-10.782;2023-02-19T16:49:18;97.17;;;22.13;;
56297;SDS011;42208;6.376;-10.782;2023-02-19T16:51:49;88.10;;;19.33;;
56297;SDS011;42208;6.376;-10.782;2023-02-19T16:54:17;96.72;;;18.27;;
56297;SDS011;42208;6.376;-10.782;2023-02-19T16:56:46;93.20;;;20.00;;
56297;SDS011;42208;6.376;-10.782;2023-02-19T16:59:14;90.60;;;17.77;;
56297;SDS011;42208;6.376;-10.782;2023-02-19T17:01:42;68.65;;;17.15;;
56297;SDS011;42208;6.376;-10.782;2023-02-19T17:04:11;91.45;;;22.15;;
56297;SDS011;42208;6.376;-10.782;2023-02-19T17:06:41;104.65;;;26.95;;